createdAt,value
2019-04-12T00:02:05.820Z,9.73
2019-04-12T00:04:37.568Z,9.90
2019-04-12T00:07:07.449Z,9.97
2019-04-12T00:09:38.540Z,10.90
2019-04-12T00:12:10.543Z,11.30
2019-04-12T00:14:42.319Z,9.80
2019-04-12T00:17:13.963Z,9.73
2019-04-12T00:19:45.369Z,10.53
2019-04-12T00:22:18.954Z,11.30
2019-04-12T00:24:49.120Z,10.13
2019-04-12T00:27:19.113Z,10.70
2019-04-12T00:29:53.637Z,10.50
2019-04-12T00:32:23.985Z,10.17
2019-04-12T00:34:56.996Z,12.10
2019-04-12T00:37:27.334Z,10.20
2019-04-12T00:40:00.581Z,9.90
2019-04-12T00:42:33.138Z,10.80
2019-04-12T00:45:05.109Z,11.00
2019-04-12T00:47:33.982Z,10.97
2019-04-12T00:50:04.281Z,10.30
2019-04-12T00:52:33.858Z,11.37
2019-04-12T00:55:03.676Z,10.23
2019-04-12T00:57:33.276Z,11.20
2019-04-12T01:00:02.946Z,10.17
2019-04-12T01:02:46.010Z,11.00
2019-04-12T01:05:35.761Z,10.67
2019-04-12T01:08:05.980Z,10.50
2019-04-12T01:10:39.257Z,11.60
2019-04-12T01:13:09.589Z,11.30
2019-04-12T01:15:40.476Z,9.73
2019-04-12T01:18:10.049Z,10.00
2019-04-12T01:20:40.182Z,10.70
2019-04-12T01:23:11.165Z,11.97
2019-04-12T01:25:44.261Z,10.37
2019-04-12T01:28:12.050Z,10.47
2019-04-12T01:30:41.462Z,11.53
2019-04-12T01:33:11.105Z,10.43
2019-04-12T01:35:43.220Z,10.30
2019-04-12T01:38:12.641Z,11.70
2019-04-12T01:40:47.074Z,10.77
2019-04-12T01:43:16.221Z,11.70
2019-04-12T01:45:45.565Z,10.93
2019-04-12T01:48:15.379Z,10.93
2019-04-12T01:50:44.833Z,11.30
2019-04-12T01:53:14.226Z,11.07
2019-04-12T01:55:43.733Z,10.63
2019-04-12T01:58:13.190Z,11.27
2019-04-12T02:00:42.753Z,10.23
2019-04-12T02:03:16.845Z,12.77
2019-04-12T02:05:46.289Z,11.23
2019-04-12T02:08:15.831Z,10.33
2019-04-12T02:10:45.845Z,11.20
2019-04-12T02:13:15.406Z,12.03
2019-04-12T02:15:45.616Z,11.37
2019-04-12T02:18:15.027Z,10.63
2019-04-12T02:20:44.532Z,10.93
2019-04-12T02:23:13.945Z,11.67
2019-04-12T02:25:44.149Z,11.80
2019-04-12T02:28:13.993Z,11.83
2019-04-12T02:30:44.772Z,11.17
2019-04-12T02:33:14.678Z,10.90
2019-04-12T02:35:45.761Z,10.87
2019-04-12T02:38:15.155Z,11.30
2019-04-12T02:40:46.966Z,11.27
2019-04-12T02:43:19.496Z,11.90
2019-04-12T02:45:52.427Z,10.90
2019-04-12T02:48:51.220Z,11.63
2019-04-12T02:51:31.422Z,10.80
2019-04-12T02:54:16.305Z,10.80
2019-04-12T02:57:15.723Z,10.47
2019-04-12T02:59:45.514Z,11.60
2019-04-12T03:02:18.902Z,11.07
2019-04-12T03:04:48.292Z,11.50
2019-04-12T03:07:18.213Z,10.77
2019-04-12T03:09:51.522Z,11.73
2019-04-12T03:12:21.714Z,11.30
2019-04-12T03:14:51.532Z,11.43
2019-04-12T03:17:20.936Z,10.87
2019-04-12T03:19:50.887Z,10.90
2019-04-12T03:22:23.092Z,9.93
2019-04-12T03:24:52.617Z,10.00
2019-04-12T03:27:22.781Z,11.30
2019-04-12T03:29:52.433Z,11.83
2019-04-12T03:32:22.511Z,10.60
2019-04-12T03:34:52.298Z,11.53
2019-04-12T03:37:22.015Z,12.00
2019-04-12T03:39:51.389Z,10.87
2019-04-12T03:42:21.366Z,10.60
2019-04-12T03:44:53.376Z,10.90
2019-04-12T03:47:23.101Z,11.27
2019-04-12T03:49:52.644Z,11.27
2019-04-12T03:52:22.247Z,11.27
2019-04-12T03:54:51.938Z,10.10
2019-04-12T03:57:23.444Z,10.70
2019-04-12T03:59:52.915Z,11.00
2019-04-12T04:02:24.770Z,12.23
2019-04-12T04:04:54.139Z,10.53
2019-04-12T04:07:24.042Z,12.50
2019-04-12T04:09:53.698Z,10.30
2019-04-12T04:12:23.405Z,11.00
2019-04-12T04:14:53.893Z,11.63
2019-04-12T04:17:33.128Z,11.23
2019-04-12T04:20:24.966Z,11.67
2019-04-12T04:23:02.717Z,11.23
2019-04-12T04:25:53.844Z,11.20
2019-04-12T04:28:37.519Z,11.53
2019-04-12T04:31:13.717Z,16.80
2019-04-12T04:33:43.574Z,11.60
2019-04-12T04:36:13.626Z,11.40
2019-04-12T04:38:46.235Z,10.90
2019-04-12T04:41:15.909Z,11.13
2019-04-12T04:43:45.418Z,10.73
2019-04-12T04:46:15.340Z,10.53
2019-04-12T04:48:45.025Z,10.57
2019-04-12T04:51:14.597Z,11.23
2019-04-12T04:53:47.098Z,9.80
2019-04-12T04:56:17.239Z,11.00
2019-04-12T04:58:47.265Z,9.37
2019-04-12T05:01:16.973Z,9.30
2019-04-12T05:03:47.495Z,9.37
2019-04-12T05:06:17.186Z,10.20
2019-04-12T05:08:46.765Z,10.30
2019-04-12T05:11:17.219Z,9.87
2019-04-12T05:13:46.680Z,8.90
2019-04-12T05:16:16.284Z,9.33
2019-04-12T05:18:45.820Z,9.80
2019-04-12T05:21:15.532Z,9.70
2019-04-12T05:23:45.666Z,8.20
2019-04-12T05:26:15.576Z,10.77
2019-04-12T05:28:46.432Z,9.13
2019-04-12T05:31:15.925Z,9.07
2019-04-12T05:33:45.420Z,8.83
2019-04-12T05:36:15.275Z,8.93
2019-04-12T05:38:44.682Z,9.20
2019-04-12T05:41:14.126Z,8.50
2019-04-12T05:43:46.589Z,9.07
2019-04-12T05:46:34.376Z,7.80
2019-04-12T05:49:23.071Z,7.03
2019-04-12T05:51:53.155Z,7.97
2019-04-12T05:54:22.732Z,8.20
2019-04-12T05:56:57.292Z,10.23
2019-04-12T05:59:37.403Z,7.17
2019-04-12T06:02:26.547Z,7.87
2019-04-12T06:04:58.934Z,8.30
2019-04-12T06:07:27.270Z,7.27
2019-04-12T06:09:56.993Z,8.23
2019-04-12T06:12:26.476Z,7.93
2019-04-12T06:14:58.165Z,7.50
2019-04-12T06:17:28.666Z,7.67
2019-04-12T06:20:17.191Z,7.97
2019-04-12T06:22:46.859Z,7.63
2019-04-12T06:25:21.805Z,6.90
2019-04-12T06:27:55.739Z,7.40
2019-04-12T06:30:28.483Z,6.77
2019-04-12T06:32:58.389Z,7.87
2019-04-12T06:35:29.529Z,7.90
2019-04-12T06:37:59.363Z,7.43
2019-04-12T06:40:28.848Z,7.20
2019-04-12T06:42:58.432Z,6.27
2019-04-12T06:45:28.108Z,7.33
2019-04-12T06:47:57.671Z,7.00
2019-04-12T06:50:38.846Z,7.47
2019-04-12T06:53:08.541Z,6.60
2019-04-12T06:55:45.827Z,7.13
2019-04-12T06:58:15.404Z,6.90
2019-04-12T07:01:13.099Z,6.60
2019-04-12T07:04:07.666Z,5.30
2019-04-12T07:06:37.199Z,5.97
2019-04-12T07:09:07.929Z,6.43
2019-04-12T07:11:37.253Z,6.57
2019-04-12T07:14:06.560Z,6.67
2019-04-12T07:16:36.030Z,6.40
2019-04-12T07:19:05.607Z,7.03
2019-04-12T07:21:34.992Z,6.27
2019-04-12T07:24:04.503Z,5.60
2019-04-12T07:26:43.313Z,6.27
2019-04-12T07:29:12.825Z,7.17
2019-04-12T07:31:42.458Z,6.77
2019-04-12T07:34:11.889Z,6.47
2019-04-12T07:36:41.393Z,5.97
2019-04-12T07:39:10.889Z,6.30
2019-04-12T07:41:40.293Z,6.23
2019-04-12T07:44:10.211Z,4.53
2019-04-12T07:46:39.674Z,6.20
2019-04-12T07:49:09.199Z,6.60
2019-04-12T07:51:53.396Z,5.00
2019-04-12T07:54:28.883Z,5.70
2019-04-12T07:56:58.294Z,5.83
2019-04-12T07:59:29.428Z,5.50
2019-04-12T08:02:16.484Z,5.20
2019-04-12T08:05:08.375Z,5.83
2019-04-12T08:07:50.474Z,4.73
2019-04-12T08:10:19.931Z,5.27
2019-04-12T08:12:49.398Z,4.87
2019-04-12T08:15:18.817Z,4.90
2019-04-12T08:17:48.316Z,4.87
2019-04-12T08:20:17.860Z,5.00
2019-04-12T08:22:50.535Z,4.80
2019-04-12T08:25:20.072Z,4.77
2019-04-12T08:27:58.294Z,4.37
2019-04-12T08:30:24.163Z,4.70
2019-04-12T08:32:53.614Z,6.77
2019-04-12T08:35:23.125Z,5.27
2019-04-12T08:38:04.086Z,4.30
2019-04-12T08:40:24.278Z,6.80
2019-04-12T08:42:53.719Z,5.97
2019-04-12T08:45:23.223Z,4.70
2019-04-12T08:47:52.650Z,6.50
2019-04-12T08:50:22.329Z,5.43
2019-04-12T08:52:52.380Z,4.20
2019-04-12T08:55:21.995Z,5.37
2019-04-12T08:57:51.473Z,4.60
2019-04-12T09:00:21.017Z,4.53
2019-04-12T09:02:58.759Z,5.23
2019-04-12T09:05:32.127Z,4.83
2019-04-12T09:07:55.583Z,4.60
2019-04-12T09:10:26.310Z,5.10
2019-04-12T09:12:55.878Z,5.50
2019-04-12T09:15:25.624Z,5.17
2019-04-12T09:17:55.045Z,5.03
2019-04-12T09:20:34.423Z,5.97
2019-04-12T09:23:19.857Z,5.50
2019-04-12T09:25:56.440Z,4.80
2019-04-12T09:28:25.868Z,5.00
2019-04-12T09:30:55.183Z,6.03
2019-04-12T09:33:24.894Z,4.87
2019-04-12T09:35:54.309Z,5.70
2019-04-12T09:38:23.644Z,5.60
2019-04-12T09:40:52.960Z,5.70
2019-04-12T09:43:22.364Z,5.60
2019-04-12T09:45:51.688Z,5.20
2019-04-12T09:48:21.322Z,5.50
2019-04-12T09:50:50.605Z,5.67
2019-04-12T09:53:19.972Z,5.27
2019-04-12T09:55:49.283Z,5.30
2019-04-12T09:58:18.569Z,5.40
2019-04-12T10:00:47.976Z,5.13
2019-04-12T10:03:17.289Z,6.90
2019-04-12T10:05:46.633Z,6.33
2019-04-12T10:08:18.697Z,5.73
2019-04-12T10:10:49.817Z,5.00
2019-04-12T10:13:19.176Z,6.37
2019-04-12T10:15:48.698Z,6.80
2019-04-12T10:18:18.366Z,5.77
2019-04-12T10:20:48.086Z,6.20
2019-04-12T10:23:17.828Z,6.23
2019-04-12T10:25:47.135Z,6.27
2019-04-12T10:28:16.536Z,7.07
2019-04-12T10:30:45.866Z,6.10
2019-04-12T10:33:15.161Z,6.20
2019-04-12T10:35:44.600Z,5.70
2019-04-12T10:38:13.922Z,6.17
2019-04-12T10:40:43.438Z,6.20
2019-04-12T10:43:12.813Z,5.33
2019-04-12T10:45:48.547Z,4.53
2019-04-12T10:48:29.321Z,5.97
2019-04-12T10:51:06.514Z,6.17
2019-04-12T10:53:45.661Z,5.47
2019-04-12T10:56:15.352Z,6.93
2019-04-12T10:58:45.378Z,5.67
2019-04-12T11:01:14.759Z,5.57
2019-04-12T11:03:44.189Z,6.67
2019-04-12T11:06:13.530Z,6.17
2019-04-12T11:08:42.934Z,6.10
2019-04-12T11:11:12.241Z,5.33
2019-04-12T11:13:41.567Z,6.47
2019-04-12T11:16:10.864Z,5.50
2019-04-12T11:18:40.176Z,5.77
2019-04-12T11:21:09.632Z,6.47
2019-04-12T11:23:39.076Z,7.13
2019-04-12T11:26:08.400Z,7.70
2019-04-12T11:28:37.902Z,7.10
2019-04-12T11:31:07.276Z,6.47
2019-04-12T11:33:36.915Z,5.37
2019-04-12T11:36:06.238Z,5.17
2019-04-12T11:38:35.605Z,5.27
2019-04-12T11:41:05.361Z,5.47
2019-04-12T11:43:34.725Z,5.00
2019-04-12T11:46:04.122Z,5.73
2019-04-12T11:48:33.436Z,6.43
2019-04-12T11:51:03.776Z,6.93
2019-04-12T11:53:33.466Z,6.43
2019-04-12T11:56:02.818Z,7.17
2019-04-12T11:58:47.285Z,5.90
2019-04-12T12:01:10.412Z,7.23
2019-04-12T12:03:45.094Z,6.33
2019-04-12T12:06:24.432Z,5.97
2019-04-12T12:09:27.846Z,6.60
2019-04-12T12:12:07.654Z,5.20
2019-04-12T12:14:51.117Z,6.33
2019-04-12T12:17:32.738Z,6.90
2019-04-12T12:20:02.175Z,6.17
2019-04-12T12:22:31.612Z,6.30
2019-04-12T12:25:00.988Z,4.87
2019-04-12T12:27:30.256Z,6.17
2019-04-12T12:29:59.580Z,6.00
2019-04-12T12:32:28.924Z,5.70
2019-04-12T12:34:58.270Z,6.37
2019-04-12T12:37:27.590Z,6.00
2019-04-12T12:39:56.965Z,5.40
2019-04-12T12:42:27.445Z,6.20
2019-04-12T12:44:56.829Z,6.37
2019-04-12T12:47:26.085Z,5.63
2019-04-12T12:49:55.408Z,5.73
2019-04-12T12:52:24.676Z,6.07
2019-04-12T12:54:53.973Z,6.70
2019-04-12T12:57:23.678Z,5.20
2019-04-12T12:59:54.871Z,5.17
2019-04-12T13:02:24.633Z,4.73
2019-04-12T13:04:54.055Z,5.80
2019-04-12T13:07:23.390Z,5.37
2019-04-12T13:09:53.137Z,5.50
2019-04-12T13:12:22.562Z,6.20
2019-04-12T13:14:51.912Z,5.63
2019-04-12T13:17:21.290Z,4.67
2019-04-12T13:19:50.641Z,6.20
2019-04-12T13:22:19.918Z,5.80
2019-04-12T13:24:49.227Z,5.40
2019-04-12T13:27:18.559Z,6.17
2019-04-12T13:29:48.519Z,5.30
2019-04-12T13:32:35.467Z,6.67
2019-04-12T13:35:22.820Z,6.10
2019-04-12T13:38:14.541Z,6.50
2019-04-12T13:40:45.058Z,6.50
2019-04-12T13:43:18.989Z,6.90
2019-04-12T13:45:48.284Z,6.73
2019-04-12T13:48:17.655Z,7.43
2019-04-12T13:50:47.038Z,7.40
2019-04-12T13:53:16.748Z,6.70
2019-04-12T13:55:46.028Z,8.03
2019-04-12T13:58:15.393Z,7.87
2019-04-12T14:00:44.785Z,7.57
2019-04-12T14:03:14.068Z,9.03
2019-04-12T14:05:43.377Z,7.40
2019-04-12T14:08:12.732Z,8.27
2019-04-12T14:10:42.008Z,8.00
2019-04-12T14:13:14.269Z,7.50
2019-04-12T14:15:46.390Z,7.00
2019-04-12T14:18:15.801Z,6.80
2019-04-12T14:20:45.581Z,6.90
2019-04-12T14:23:14.968Z,7.50
2019-04-12T14:25:44.266Z,6.97
2019-04-12T14:28:13.795Z,7.23
2019-04-12T14:30:49.756Z,6.67
2019-04-12T14:33:29.321Z,6.70
2019-04-12T14:36:16.496Z,6.80
2019-04-12T14:38:45.845Z,6.33
2019-04-12T14:41:15.376Z,7.83
2019-04-12T14:44:06.702Z,6.90
2019-04-12T14:46:40.456Z,6.13
2019-04-12T14:49:09.841Z,7.03
2019-04-12T14:51:39.962Z,6.77
2019-04-12T14:54:09.381Z,6.83
2019-04-12T14:56:39.362Z,7.10
2019-04-12T14:59:08.850Z,6.97
2019-04-12T15:01:38.189Z,6.60
2019-04-12T15:04:07.592Z,6.90
2019-04-12T15:06:37.255Z,7.17
2019-04-12T15:09:08.139Z,6.90
2019-04-12T15:11:37.455Z,6.47
2019-04-12T15:14:06.837Z,6.90
2019-04-12T15:16:36.415Z,5.93
2019-04-12T15:19:09.719Z,5.90
2019-04-12T15:21:42.009Z,5.93
2019-04-12T15:24:11.432Z,5.90
2019-04-12T15:26:40.899Z,6.10
2019-04-12T15:29:11.144Z,6.87
2019-04-12T15:31:40.939Z,6.50
2019-04-12T15:34:10.471Z,7.20
2019-04-12T15:36:39.768Z,6.10
2019-04-12T15:39:11.772Z,5.97
2019-04-12T15:41:41.291Z,5.80
2019-04-12T15:44:10.611Z,6.40
2019-04-12T15:46:39.987Z,6.57
2019-04-12T15:49:09.382Z,6.70
2019-04-12T15:51:38.713Z,6.47
2019-04-12T15:54:09.573Z,6.43
2019-04-12T15:56:39.085Z,6.17
2019-04-12T15:59:08.820Z,7.57
2019-04-12T16:01:38.166Z,6.37
2019-04-12T16:04:07.696Z,6.20
2019-04-12T16:06:37.193Z,5.90
2019-04-12T16:09:19.855Z,7.60
2019-04-12T16:12:09.632Z,8.13
2019-04-12T16:15:06.947Z,7.67
2019-04-12T16:18:06.449Z,8.10
2019-04-12T16:20:37.789Z,8.77
2019-04-12T16:23:09.821Z,8.60
2019-04-12T16:25:39.541Z,9.97
2019-04-12T16:28:37.371Z,9.90
2019-04-12T16:31:24.348Z,8.73
2019-04-12T16:34:11.351Z,10.67
2019-04-12T16:36:54.184Z,9.53
2019-04-12T16:39:24.011Z,10.50
2019-04-12T16:41:53.356Z,9.17
2019-04-12T16:44:23.848Z,9.07
2019-04-12T16:46:53.422Z,8.40
2019-04-12T16:49:22.862Z,8.60
2019-04-12T16:51:52.329Z,8.23
2019-04-12T16:54:21.697Z,7.90
2019-04-12T16:56:51.200Z,7.10
2019-04-12T16:59:20.568Z,7.73
2019-04-12T17:01:50.074Z,9.20
2019-04-12T17:04:19.475Z,8.23
2019-04-12T17:06:49.233Z,9.07
2019-04-12T17:09:18.994Z,9.27
2019-04-12T17:11:48.324Z,9.80
2019-04-12T17:14:17.892Z,9.30
2019-04-12T17:16:47.375Z,10.10
2019-04-12T17:19:16.931Z,10.80
2019-04-12T17:21:46.426Z,10.97
2019-04-12T17:24:15.957Z,11.17
2019-04-12T17:26:48.301Z,11.40
2019-04-12T17:29:17.928Z,13.40
2019-04-12T17:31:49.308Z,12.73
2019-04-12T17:34:18.708Z,11.27
2019-04-12T17:36:49.846Z,11.57
2019-04-12T17:39:22.289Z,11.00
2019-04-12T17:41:51.651Z,9.70
2019-04-12T17:44:21.085Z,9.97
2019-04-12T17:46:50.691Z,11.17
2019-04-12T17:49:30.225Z,9.70
2019-04-12T17:52:05.697Z,9.83
2019-04-12T17:54:58.562Z,11.40
2019-04-12T17:57:27.861Z,8.93
2019-04-12T17:59:57.753Z,9.00
2019-04-12T18:02:36.649Z,9.57
2019-04-12T18:05:11.980Z,8.30
2019-04-12T18:07:41.658Z,8.33
2019-04-12T18:10:12.501Z,8.80
2019-04-12T18:12:42.503Z,8.63
2019-04-12T18:15:15.083Z,8.90
2019-04-12T18:17:46.063Z,9.50
2019-04-12T18:20:15.672Z,9.13
2019-04-12T18:22:47.282Z,9.30
2019-04-12T18:25:17.102Z,10.20
2019-04-12T18:27:46.568Z,10.90
2019-04-12T18:30:20.661Z,10.00
2019-04-12T18:32:50.239Z,9.77
2019-04-12T18:35:19.910Z,10.93
2019-04-12T18:37:49.227Z,10.00
2019-04-12T18:40:18.864Z,10.33
2019-04-12T18:42:48.309Z,11.40
2019-04-12T18:45:17.732Z,10.43
2019-04-12T18:47:47.425Z,8.40
2019-04-12T18:50:17.085Z,9.13
2019-04-12T18:52:46.598Z,8.13
2019-04-12T18:55:16.022Z,8.40
2019-04-12T18:57:45.479Z,7.20
2019-04-12T19:00:16.078Z,6.97
2019-04-12T19:02:45.517Z,6.57
2019-04-12T19:05:15.410Z,7.77
2019-04-12T19:07:44.971Z,7.33
2019-04-12T19:10:14.697Z,6.57
2019-04-12T19:12:44.252Z,6.63
2019-04-12T19:15:16.569Z,7.10
2019-04-12T19:17:45.958Z,7.70
2019-04-12T19:20:16.277Z,6.93
2019-04-12T19:22:45.594Z,8.57
2019-04-12T19:25:16.251Z,7.13
2019-04-12T19:27:45.548Z,7.80
2019-04-12T19:30:21.860Z,6.30
2019-04-12T19:33:13.499Z,7.27
2019-04-12T19:35:57.115Z,7.13
2019-04-12T19:38:48.240Z,6.90
2019-04-12T19:41:22.551Z,6.70
2019-04-12T19:43:53.681Z,6.40
2019-04-12T19:46:23.069Z,6.73
2019-04-12T19:48:52.502Z,8.10
2019-04-12T19:51:24.646Z,7.90
2019-04-12T19:53:54.064Z,8.37
2019-04-12T19:56:27.209Z,7.23
2019-04-12T19:58:56.778Z,8.10
2019-04-12T20:01:26.129Z,8.20
2019-04-12T20:03:55.773Z,8.13
2019-04-12T20:06:25.157Z,7.90
2019-04-12T20:08:54.531Z,7.63
2019-04-12T20:11:23.967Z,7.67
2019-04-12T20:13:53.401Z,7.83
2019-04-12T20:16:23.526Z,9.03
2019-04-12T20:18:54.658Z,7.90
2019-04-12T20:21:23.950Z,7.97
2019-04-12T20:23:53.261Z,9.60
2019-04-12T20:26:22.936Z,8.13
2019-04-12T20:28:52.568Z,8.00
2019-04-12T20:31:23.830Z,9.10
2019-04-12T20:33:54.465Z,9.40
2019-04-12T20:36:23.881Z,8.83
2019-04-12T20:38:53.430Z,7.80
2019-04-12T20:41:22.872Z,8.30
2019-04-12T20:43:55.117Z,9.50
2019-04-12T20:46:24.575Z,8.60
2019-04-12T20:48:53.880Z,7.87
2019-04-12T20:51:23.635Z,9.20
2019-04-12T20:53:53.283Z,10.37
2019-04-12T20:56:22.686Z,9.10
2019-04-12T20:58:52.024Z,8.00
2019-04-12T21:01:22.888Z,9.37
2019-04-12T21:03:52.213Z,9.97
2019-04-12T21:06:21.786Z,8.53
2019-04-12T21:08:51.422Z,8.90
2019-04-12T21:11:20.700Z,9.23
2019-04-12T21:13:50.009Z,9.60
2019-04-12T21:16:19.324Z,9.90
2019-04-12T21:18:50.146Z,9.80
2019-04-12T21:21:19.923Z,9.93
2019-04-12T21:23:49.328Z,9.60
2019-04-12T21:26:18.658Z,10.77
2019-04-12T21:28:47.996Z,10.23
2019-04-12T21:31:17.460Z,9.63
2019-04-12T21:33:47.211Z,9.37
2019-04-12T21:36:16.560Z,9.87
2019-04-12T21:38:45.853Z,10.43
2019-04-12T21:41:15.298Z,9.87
2019-04-12T21:43:44.617Z,10.03
2019-04-12T21:46:19.523Z,10.27
2019-04-12T21:48:44.948Z,9.63
2019-04-12T21:51:14.490Z,8.53
2019-04-12T21:53:43.891Z,9.83
2019-04-12T21:56:13.259Z,9.00
2019-04-12T21:58:42.596Z,10.13
2019-04-12T22:01:15.500Z,9.53
2019-04-12T22:03:45.200Z,9.20
2019-04-12T22:06:14.571Z,8.57
2019-04-12T22:08:44.138Z,9.37
2019-04-12T22:11:13.418Z,9.20
2019-04-12T22:13:42.881Z,8.90
2019-04-12T22:16:12.272Z,8.23
2019-04-12T22:18:41.750Z,8.50
2019-04-12T22:21:11.110Z,10.70
2019-04-12T22:23:40.662Z,9.73
2019-04-12T22:26:10.512Z,8.40
2019-04-12T22:28:40.181Z,7.60
2019-04-12T22:31:09.765Z,8.27
2019-04-12T22:33:39.218Z,7.67
2019-04-12T22:36:08.744Z,7.93
2019-04-12T22:38:38.391Z,7.53
2019-04-12T22:41:08.108Z,8.00
2019-04-12T22:43:37.561Z,8.00
2019-04-12T22:46:07.646Z,8.53
2019-04-12T22:48:37.106Z,7.50
2019-04-12T22:51:06.450Z,8.00
2019-04-12T22:53:35.739Z,8.33
2019-04-12T22:56:05.458Z,7.73
2019-04-12T22:58:34.773Z,8.47
2019-04-12T23:01:04.042Z,6.33
2019-04-12T23:03:33.368Z,6.70
2019-04-12T23:06:02.663Z,7.60
2019-04-12T23:08:32.027Z,8.10
2019-04-12T23:11:01.669Z,7.97
2019-04-12T23:13:30.984Z,7.87
2019-04-12T23:16:00.353Z,8.53
2019-04-12T23:18:29.726Z,8.03
2019-04-12T23:20:59.028Z,8.03
2019-04-12T23:23:28.329Z,9.53
2019-04-12T23:25:57.645Z,8.73
2019-04-12T23:28:26.937Z,7.93
2019-04-12T23:31:15.173Z,8.70
2019-04-12T23:33:58.889Z,7.77
2019-04-12T23:36:30.112Z,8.33
2019-04-12T23:38:59.389Z,8.37
2019-04-12T23:41:28.660Z,7.50
2019-04-12T23:43:57.953Z,8.93
2019-04-12T23:46:27.219Z,9.90
2019-04-12T23:48:56.581Z,10.40
2019-04-12T23:51:25.863Z,8.90
2019-04-12T23:53:55.473Z,9.57
2019-04-12T23:56:24.776Z,8.53
2019-04-12T23:58:54.150Z,9.53
